Time;durP1;ratioP1;P1;durP2;ratioP2;P2;SDS_P1;SDS_P2;PMS_P1;PMS_P2;Temp;Humidity;BMP_temperature;BMP_pressure;BME280_temperature;BME280_humidity;BME280_pressure;Samples;Min_cycle;Max_cycle;Signal;HPM_P1;HPM_P2
2022/11/09 00:01:23;;;;;;;;;;;7.30;98.20;;;;;;5069264;28;19920;-86
2022/11/09 00:03:53;;;;;;;;;;;7.30;98.30;;;;;;5068233;28;20439;-85
2022/11/09 00:06:18;;;;;;;;;;;7.30;98.60;;;;;;5049980;28;20310;-83
2022/11/09 00:08:44;;;;;;;;;;;7.30;98.60;;;;;;5065109;28;19921;-85
2022/11/09 00:11:10;;;;;;;;;;;7.30;98.70;;;;;;5067008;28;19925;-84
2022/11/09 00:13:37;;;;;;;;;;;7.20;98.60;;;;;;5069608;28;19921;-86
2022/11/09 00:16:03;;;;;;;;;;;7.30;98.70;;;;;;5068939;28;19917;-86
2022/11/09 00:18:29;;;;;;;;;;;7.20;98.80;;;;;;5068743;28;19920;-87
2022/11/09 00:20:55;;;;;;;;;;;7.30;98.60;;;;;;5069311;28;20346;-88
2022/11/09 00:23:20;;;;;;;;;;;7.30;98.30;;;;;;5051086;28;19923;-85
2022/11/09 00:25:46;;;;;;;;;;;7.30;98.10;;;;;;5065024;28;19919;-84
2022/11/09 00:28:12;;;;;;;;;;;7.30;97.90;;;;;;5068744;28;19913;-87
2022/11/09 00:30:37;;;;;;;;;;;7.40;97.40;;;;;;5050285;28;19920;-87
2022/11/09 00:33:03;;;;;;;;;;;7.60;95.80;;;;;;5066204;28;20413;-84
2022/11/09 00:35:28;;;;;;;;;;;7.60;95.40;;;;;;5068004;28;20326;-87
2022/11/09 00:37:54;;;;;;;;;;;7.70;94.90;;;;;;5066902;28;20007;-87
2022/11/09 00:40:19;;;;;;;;;;;7.70;94.60;;;;;;5066162;28;19917;-88
2022/11/09 00:42:45;;;;;;;;;;;7.70;94.50;;;;;;5066417;28;19924;-87
2022/11/09 00:45:10;;;;;;;;;;;7.70;94.50;;;;;;5065652;28;19952;-86
2022/11/09 00:47:36;;;;;;;;;;;7.70;94.40;;;;;;5068435;28;20262;-86
2022/11/09 00:50:02;;;;;;;;;;;7.60;94.70;;;;;;5066540;28;20423;-87
2022/11/09 00:52:27;;;;;;;;;;;7.50;95.30;;;;;;5066721;28;19912;-86
2022/11/09 00:54:53;;;;;;;;;;;7.40;95.40;;;;;;5065765;28;19921;-86
2022/11/09 00:57:18;;;;;;;;;;;7.30;96.00;;;;;;5067326;28;19924;-86
2022/11/09 00:59:44;;;;;;;;;;;7.20;96.70;;;;;;5059537;28;19994;-86
2022/11/09 01:02:10;;;;;;;;;;;7.20;96.70;;;;;;5067027;28;19916;-87
2022/11/09 01:04:35;;;;;;;;;;;7.20;96.50;;;;;;5066531;28;19928;-83
2022/11/09 01:07:01;;;;;;;;;;;7.20;96.50;;;;;;5065821;28;20402;-85
2022/11/09 01:09:26;;;;;;;;;;;7.30;96.40;;;;;;5067976;28;19943;-85
2022/11/09 01:11:52;;;;;;;;;;;7.30;96.40;;;;;;5066721;28;19921;-84
2022/11/09 01:14:17;;;;;;;;;;;7.30;96.10;;;;;;5064307;28;19913;-86
2022/11/09 01:16:43;;;;;;;;;;;7.30;95.80;;;;;;5064711;28;19931;-88
2022/11/09 01:19:08;;;;;;;;;;;7.30;95.80;;;;;;5049311;28;19951;-84
2022/11/09 01:21:34;;;;;;;;;;;7.40;95.70;;;;;;5067833;28;19916;-86
2022/11/09 01:24:00;;;;;;;;;;;7.30;96.10;;;;;;5068142;28;19927;-85
2022/11/09 01:26:26;;;;;;;;;;;7.30;95.90;;;;;;5067390;28;20588;-87
2022/11/09 01:28:51;;;;;;;;;;;7.30;96.10;;;;;;5066497;28;20067;-88
2022/11/09 01:31:18;;;;;;;;;;;7.20;96.10;;;;;;5068105;28;20528;-87
2022/11/09 01:33:43;;;;;;;;;;;7.20;95.90;;;;;;5065368;28;19921;-86
2022/11/09 01:36:14;;;;;;;;;;;7.20;95.80;;;;;;5065916;28;20016;-89
2022/11/09 01:38:40;;;;;;;;;;;7.20;95.90;;;;;;5066209;28;20444;-87
2022/11/09 01:41:06;;;;;;;;;;;7.20;95.90;;;;;;5067154;28;20003;-84
2022/11/09 01:43:32;;;;;;;;;;;7.20;95.90;;;;;;5067523;28;19943;-86
2022/11/09 01:46:24;;;;;;;;;;;7.20;95.90;;;;;;5066704;28;20434;-84
2022/11/09 01:48:57;;;;;;;;;;;7.20;95.70;;;;;;5063466;28;19912;-85
2022/11/09 01:51:25;;;;;;;;;;;7.20;95.80;;;;;;5066789;28;20010;-87
2022/11/09 01:53:52;;;;;;;;;;;7.20;95.90;;;;;;5067457;28;19919;-87
2022/11/09 01:56:18;;;;;;;;;;;7.10;96.10;;;;;;5049791;28;20479;-86
2022/11/09 01:58:55;;;;;;;;;;;7.00;96.40;;;;;;5067353;28;20043;-83
2022/11/09 02:01:20;;;;;;;;;;;7.00;96.90;;;;;;5066538;28;20413;-87
2022/11/09 02:03:53;;;;;;;;;;;6.90;96.70;;;;;;5067134;28;19924;-86
2022/11/09 02:06:19;;;;;;;;;;;6.80;96.70;;;;;;5051283;28;20389;-84
2022/11/09 02:08:45;;;;;;;;;;;6.80;96.70;;;;;;5051438;28;19923;-82
2022/11/09 02:11:20;;;;;;;;;;;6.70;96.90;;;;;;5065893;28;19929;-83
2022/11/09 02:13:55;;;;;;;;;;;6.70;97.00;;;;;;5064250;28;20702;-82
2022/11/09 02:16:21;;;;;;;;;;;6.60;97.40;;;;;;5068918;28;20077;-82
2022/11/09 02:18:50;;;;;;;;;;;6.60;97.30;;;;;;5063576;28;19927;-81
2022/11/09 02:21:15;;;;;;;;;;;6.50;97.30;;;;;;5068696;28;19916;-86
2022/11/09 02:23:41;;;;;;;;;;;6.40;97.50;;;;;;5062274;28;19920;-80
2022/11/09 02:26:09;;;;;;;;;;;6.30;97.70;;;;;;5068957;28;19920;-83
2022/11/09 02:28:38;;;;;;;;;;;6.40;98.00;;;;;;5066774;28;19995;-85
2022/11/09 02:31:05;;;;;;;;;;;6.40;98.10;;;;;;5068715;28;19958;-82
2022/11/09 02:33:41;;;;;;;;;;;6.50;98.30;;;;;;5069024;28;19921;-83
2022/11/09 02:36:06;;;;;;;;;;;6.40;98.30;;;;;;5070233;28;20013;-80
2022/11/09 02:38:32;;;;;;;;;;;6.40;98.40;;;;;;5068672;28;19955;-85
2022/11/09 02:40:57;;;;;;;;;;;6.50;97.90;;;;;;5071497;28;20429;-83
2022/11/09 02:43:23;;;;;;;;;;;6.60;97.40;;;;;;5046903;28;19912;-82
2022/11/09 02:45:48;;;;;;;;;;;6.60;96.80;;;;;;5071133;28;20003;-81
2022/11/09 02:48:14;;;;;;;;;;;6.60;96.40;;;;;;5068242;28;19913;-82
2022/11/09 02:50:39;;;;;;;;;;;6.80;96.20;;;;;;5070573;28;20401;-87
2022/11/09 02:53:05;;;;;;;;;;;6.60;96.30;;;;;;5072059;28;19920;-85
2022/11/09 02:55:30;;;;;;;;;;;6.70;96.30;;;;;;5071660;28;19920;-83
2022/11/09 02:57:56;;;;;;;;;;;6.70;96.30;;;;;;5069990;28;20301;-82
2022/11/09 03:00:21;;;;;;;;;;;6.60;96.30;;;;;;5069764;28;19966;-85
2022/11/09 03:02:48;;;;;;;;;;;6.70;96.40;;;;;;5070066;28;19924;-84
2022/11/09 03:05:13;;;;;;;;;;;6.70;95.90;;;;;;5053356;28;20387;-88
2022/11/09 03:07:39;;;;;;;;;;;6.50;96.40;;;;;;5071449;28;19916;-82
2022/11/09 03:10:04;;;;;;;;;;;6.60;96.10;;;;;;5069393;28;20389;-81
2022/11/09 03:12:30;;;;;;;;;;;6.60;96.10;;;;;;5067311;28;20451;-81
2022/11/09 03:14:59;;;;;;;;;;;6.50;96.30;;;;;;5070543;28;19924;-83
2022/11/09 03:17:25;;;;;;;;;;;6.60;96.10;;;;;;5070116;28;19920;-85
2022/11/09 03:19:51;;;;;;;;;;;6.50;95.70;;;;;;5069385;28;19923;-86
2022/11/09 03:22:18;;;;;;;;;;;6.70;95.30;;;;;;5056771;28;19921;-86
2022/11/09 03:24:43;;;;;;;;;;;6.70;95.60;;;;;;5065759;28;19939;-86
2022/11/09 03:27:09;;;;;;;;;;;6.60;95.50;;;;;;5070055;28;20508;-85
2022/11/09 03:29:35;;;;;;;;;;;6.70;95.10;;;;;;5069973;28;20390;-85
2022/11/09 03:32:00;;;;;;;;;;;6.70;95.30;;;;;;5065082;28;20003;-85
2022/11/09 03:34:26;;;;;;;;;;;6.70;95.10;;;;;;5070039;28;19920;-86
2022/11/09 03:36:51;;;;;;;;;;;6.90;94.80;;;;;;5069997;28;20489;-84
2022/11/09 03:39:17;;;;;;;;;;;6.90;94.40;;;;;;5065901;28;20435;-82
2022/11/09 03:41:42;;;;;;;;;;;7.00;93.20;;;;;;5051610;28;19955;-85
2022/11/09 03:44:08;;;;;;;;;;;7.30;92.10;;;;;;5051900;28;19981;-84
2022/11/09 03:46:33;;;;;;;;;;;7.40;92.00;;;;;;5070005;28;19970;-86
2022/11/09 03:48:59;;;;;;;;;;;7.40;91.10;;;;;;5069421;28;19957;-83
2022/11/09 03:51:26;;;;;;;;;;;7.50;90.80;;;;;;5067613;28;20221;-85
2022/11/09 03:53:52;;;;;;;;;;;7.70;89.70;;;;;;5069612;28;19944;-87
2022/11/09 03:56:18;;;;;;;;;;;7.80;88.10;;;;;;5069527;28;20521;-87
2022/11/09 03:58:43;;;;;;;;;;;7.80;88.10;;;;;;5069069;28;19978;-85
2022/11/09 04:01:09;;;;;;;;;;;7.80;89.70;;;;;;5068135;28;20321;-86
2022/11/09 04:03:35;;;;;;;;;;;7.80;90.00;;;;;;5068161;28;19922;-82
2022/11/09 04:06:01;;;;;;;;;;;7.80;90.10;;;;;;5069637;28;19995;-84
2022/11/09 04:08:26;;;;;;;;;;;7.90;87.60;;;;;;5069265;28;20027;-86
2022/11/09 04:10:52;;;;;;;;;;;8.10;85.90;;;;;;5068399;28;19920;-85
2022/11/09 04:13:17;;;;;;;;;;;8.40;82.20;;;;;;5061768;28;20129;-86
2022/11/09 04:15:43;;;;;;;;;;;8.50;81.90;;;;;;5067626;28;19966;-87
2022/11/09 04:18:11;;;;;;;;;;;8.50;80.40;;;;;;5068996;28;19943;-86
2022/11/09 04:20:36;;;;;;;;;;;8.50;81.60;;;;;;5069030;28;20627;-83
2022/11/09 04:23:03;;;;;;;;;;;8.50;81.30;;;;;;5051098;28;20051;-89
2022/11/09 04:25:31;;;;;;;;;;;8.50;80.20;;;;;;5068746;28;20435;-83
2022/11/09 04:27:57;;;;;;;;;;;8.50;80.70;;;;;;5066777;28;19921;-85
2022/11/09 04:30:23;;;;;;;;;;;8.50;81.00;;;;;;5050864;28;19927;-88
2022/11/09 04:32:49;;;;;;;;;;;8.50;80.00;;;;;;5068400;28;20059;-85
2022/11/09 04:35:15;;;;;;;;;;;8.40;82.30;;;;;;5069157;28;19916;-83
2022/11/09 04:37:40;;;;;;;;;;;8.40;81.10;;;;;;5066511;28;20011;-86
2022/11/09 04:40:06;;;;;;;;;;;8.40;81.10;;;;;;5065643;28;19912;-84
2022/11/09 04:42:31;;;;;;;;;;;8.50;79.60;;;;;;5068734;28;19955;-87
2022/11/09 04:44:57;;;;;;;;;;;8.50;81.00;;;;;;5067513;28;21270;-86
2022/11/09 04:47:22;;;;;;;;;;;8.50;80.30;;;;;;5064482;28;19927;-85
2022/11/09 04:49:48;;;;;;;;;;;8.50;80.40;;;;;;5066542;28;20024;-83
2022/11/09 04:52:14;;;;;;;;;;;8.50;81.10;;;;;;5067705;28;20410;-87
2022/11/09 04:54:40;;;;;;;;;;;8.50;79.60;;;;;;5061321;28;19912;-84
2022/11/09 04:57:05;;;;;;;;;;;8.60;80.70;;;;;;5067004;28;19974;-85
2022/11/09 04:59:31;;;;;;;;;;;8.50;80.00;;;;;;5067198;28;20297;-83
2022/11/09 05:01:56;;;;;;;;;;;8.50;79.40;;;;;;5067929;28;19927;-83
2022/11/09 05:04:22;;;;;;;;;;;8.40;81.00;;;;;;5050525;28;20011;-88
2022/11/09 05:06:47;;;;;;;;;;;8.40;81.30;;;;;;5066058;28;20251;-83
2022/11/09 05:09:13;;;;;;;;;;;8.50;80.90;;;;;;5067977;28;19970;-84
2022/11/09 05:11:38;;;;;;;;;;;8.50;82.00;;;;;;5048072;28;19959;-82
2022/11/09 05:14:04;;;;;;;;;;;8.50;80.60;;;;;;5064462;28;20554;-85
2022/11/09 05:16:30;;;;;;;;;;;8.50;80.80;;;;;;5049867;28;20346;-85
2022/11/09 05:18:55;;;;;;;;;;;8.60;81.60;;;;;;5067668;28;20011;-84
2022/11/09 05:21:21;;;;;;;;;;;8.60;81.70;;;;;;5067154;28;19955;-83
2022/11/09 05:23:58;;;;;;;;;;;8.60;82.80;;;;;;5065247;28;20478;-87
2022/11/09 05:26:25;;;;;;;;;;;8.60;85.00;;;;;;5066672;28;19978;-85
2022/11/09 05:28:51;;;;;;;;;;;8.50;86.80;;;;;;5067660;28;19951;-86
2022/11/09 05:31:17;;;;;;;;;;;8.50;88.40;;;;;;5061017;28;19921;-84
2022/11/09 05:33:44;;;;;;;;;;;8.50;90.90;;;;;;5048654;28;19920;-80
2022/11/09 05:36:09;;;;;;;;;;;8.50;91.50;;;;;;5062332;28;19927;-84
2022/11/09 05:38:35;;;;;;;;;;;8.50;91.50;;;;;;5066995;28;19939;-85
2022/11/09 05:41:00;;;;;;;;;;;8.50;92.40;;;;;;5067178;28;19951;-87
2022/11/09 05:43:26;;;;;;;;;;;8.50;93.00;;;;;;5062517;28;19924;-83
2022/11/09 05:45:51;;;;;;;;;;;8.50;93.30;;;;;;5067504;28;19927;-85
2022/11/09 05:48:17;;;;;;;;;;;8.50;94.10;;;;;;5063747;28;19916;-80
2022/11/09 05:50:43;;;;;;;;;;;8.50;95.10;;;;;;5065706;28;20634;-80
2022/11/09 05:53:09;;;;;;;;;;;8.60;95.00;;;;;;5066342;28;20358;-82
2022/11/09 05:55:35;;;;;;;;;;;8.50;95.70;;;;;;5068838;28;19920;-82
2022/11/09 05:58:00;;;;;;;;;;;8.50;96.20;;;;;;5062757;28;19922;-77
2022/11/09 06:00:26;;;;;;;;;;;8.50;96.90;;;;;;5037834;28;19971;-82
2022/11/09 06:02:52;;;;;;;;;;;8.60;97.40;;;;;;5061580;28;19924;-79
2022/11/09 06:05:19;;;;;;;;;;;8.70;97.60;;;;;;5063371;28;19917;-82
2022/11/09 06:07:44;;;;;;;;;;;8.70;97.60;;;;;;5059649;28;19948;-81
2022/11/09 06:10:10;;;;;;;;;;;8.60;98.20;;;;;;5066683;28;19944;-85
2022/11/09 06:12:36;;;;;;;;;;;8.60;98.50;;;;;;5059460;28;19946;-79
2022/11/09 06:15:01;;;;;;;;;;;8.60;98.60;;;;;;5067372;28;19912;-82
2022/11/09 06:17:27;;;;;;;;;;;8.60;98.80;;;;;;5055920;28;20391;-83
2022/11/09 06:19:52;;;;;;;;;;;8.70;99.30;;;;;;5046300;28;19952;-80
2022/11/09 06:22:18;;;;;;;;;;;8.60;99.20;;;;;;5066987;28;19920;-82
2022/11/09 06:24:43;;;;;;;;;;;8.70;99.40;;;;;;5036192;28;19944;-80
2022/11/09 06:27:09;;;;;;;;;;;8.50;99.20;;;;;;5048362;28;19935;-81
2022/11/09 06:29:34;;;;;;;;;;;8.50;99.20;;;;;;5063145;28;19921;-85
2022/11/09 06:32:00;;;;;;;;;;;8.40;99.40;;;;;;5060335;28;19959;-81
2022/11/09 06:34:25;;;;;;;;;;;8.30;99.90;;;;;;5067012;28;19916;-77
2022/11/09 06:36:51;;;;;;;;;;;8.30;99.90;;;;;;5066737;28;20423;-83
2022/11/09 06:39:16;;;;;;;;;;;8.20;99.90;;;;;;5066005;28;20637;-85
2022/11/09 06:41:42;;;;;;;;;;;8.10;99.90;;;;;;5065720;28;19917;-80
2022/11/09 06:44:07;;;;;;;;;;;8.00;99.90;;;;;;5065586;28;20393;-80
2022/11/09 06:46:33;;;;;;;;;;;8.00;99.90;;;;;;5058949;28;19908;-79
2022/11/09 06:48:59;;;;;;;;;;;8.00;99.90;;;;;;5048718;28;19993;-83
2022/11/09 06:51:24;;;;;;;;;;;8.00;99.90;;;;;;5067069;28;19919;-81
2022/11/09 06:53:50;;;;;;;;;;;8.00;99.90;;;;;;5046847;28;19921;-80
2022/11/09 06:56:15;;;;;;;;;;;7.80;99.90;;;;;;5067217;28;19927;-81
2022/11/09 06:58:41;;;;;;;;;;;7.70;99.90;;;;;;5064909;28;19971;-82
2022/11/09 07:01:08;;;;;;;;;;;7.80;99.90;;;;;;5065826;28;19955;-82
2022/11/09 07:03:33;;;;;;;;;;;7.70;99.90;;;;;;5064296;28;20294;-87
2022/11/09 07:06:02;;;;;;;;;;;7.90;99.90;;;;;;5067011;28;19981;-82
2022/11/09 07:08:28;;;;;;;;;;;7.80;99.90;;;;;;5066606;28;19951;-85
2022/11/09 07:10:53;;;;;;;;;;;7.80;99.90;;;;;;5066623;28;19971;-79
2022/11/09 07:13:19;;;;;;;;;;;7.80;99.90;;;;;;5066808;28;20547;-79
2022/11/09 07:15:44;;;;;;;;;;;7.70;99.90;;;;;;5066323;28;19913;-82
2022/11/09 07:18:11;;;;;;;;;;;7.70;99.90;;;;;;5065992;28;19932;-83
2022/11/09 07:20:37;;;;;;;;;;;7.70;99.90;;;;;;5070275;28;19912;-85
2022/11/09 07:23:02;;;;;;;;;;;7.70;99.90;;;;;;5054713;28;19984;-78
2022/11/09 07:25:28;;;;;;;;;;;7.70;99.90;;;;;;5068582;28;19923;-78
2022/11/09 07:27:53;;;;;;;;;;;7.80;99.90;;;;;;5070077;28;19966;-81
2022/11/09 07:30:19;;;;;;;;;;;7.80;99.90;;;;;;5069455;28;19924;-79
2022/11/09 07:32:44;;;;;;;;;;;7.80;99.90;;;;;;5067819;28;19913;-79
2022/11/09 07:35:10;;;;;;;;;;;7.90;99.90;;;;;;5069930;28;19966;-82
2022/11/09 07:37:36;;;;;;;;;;;8.10;99.90;;;;;;5066285;28;20022;-83
2022/11/09 07:40:01;;;;;;;;;;;8.10;99.90;;;;;;5069719;28;19927;-80
2022/11/09 07:42:27;;;;;;;;;;;8.10;99.90;;;;;;5069952;28;19921;-83
2022/11/09 07:44:52;;;;;;;;;;;8.20;99.90;;;;;;5066144;28;19923;-81
2022/11/09 07:47:18;;;;;;;;;;;8.20;99.90;;;;;;5068273;28;19920;-80
2022/11/09 07:49:44;;;;;;;;;;;8.20;99.90;;;;;;5052080;28;19926;-83
2022/11/09 07:52:10;;;;;;;;;;;8.10;99.90;;;;;;5069577;28;19967;-79
2022/11/09 07:54:36;;;;;;;;;;;8.20;99.90;;;;;;5066356;28;20610;-80
2022/11/09 07:57:02;;;;;;;;;;;8.10;99.90;;;;;;5051771;28;19924;-80
2022/11/09 07:59:27;;;;;;;;;;;8.10;99.90;;;;;;5069887;28;19927;-79
2022/11/09 08:01:53;;;;;;;;;;;8.00;99.90;;;;;;5067532;28;20446;-83
2022/11/09 08:04:18;;;;;;;;;;;8.10;99.90;;;;;;5065697;28;19965;-83
2022/11/09 08:06:44;;;;;;;;;;;8.10;99.90;;;;;;5068166;28;19916;-88
2022/11/09 08:09:09;;;;;;;;;;;8.10;99.90;;;;;;5065793;28;20287;-82
2022/11/09 08:11:35;;;;;;;;;;;7.90;99.90;;;;;;5068060;28;19928;-82
2022/11/09 08:14:00;;;;;;;;;;;7.80;99.90;;;;;;5066172;28;20934;-79
2022/11/09 08:16:26;;;;;;;;;;;7.80;99.90;;;;;;5067412;28;19931;-80
2022/11/09 08:18:51;;;;;;;;;;;7.90;99.90;;;;;;5062490;28;19924;-80
2022/11/09 08:21:17;;;;;;;;;;;7.90;99.90;;;;;;5063079;28;20577;-84
2022/11/09 08:23:43;;;;;;;;;;;8.00;99.90;;;;;;5069229;28;19920;-80
2022/11/09 08:26:09;;;;;;;;;;;8.00;99.90;;;;;;5069283;28;19919;-82
2022/11/09 08:28:34;;;;;;;;;;;8.00;99.90;;;;;;5065952;28;19913;-81
2022/11/09 08:31:01;;;;;;;;;;;8.10;99.90;;;;;;5068271;28;19913;-78
2022/11/09 08:33:30;;;;;;;;;;;8.10;99.90;;;;;;5067983;28;19985;-81
2022/11/09 08:35:55;;;;;;;;;;;8.20;99.90;;;;;;5064331;28;19927;-80
2022/11/09 08:38:21;;;;;;;;;;;8.10;99.90;;;;;;5068466;28;19929;-84
2022/11/09 08:40:46;;;;;;;;;;;8.10;99.90;;;;;;5067834;28;20007;-83
2022/11/09 08:43:12;;;;;;;;;;;8.10;99.90;;;;;;5067595;28;19920;-81
2022/11/09 08:45:38;;;;;;;;;;;8.20;99.90;;;;;;5065306;28;19921;-83
2022/11/09 08:48:04;;;;;;;;;;;8.20;99.90;;;;;;5051507;28;19948;-81
2022/11/09 08:50:30;;;;;;;;;;;8.30;99.90;;;;;;5050981;28;19948;-84
2022/11/09 08:52:56;;;;;;;;;;;8.40;99.90;;;;;;5047985;28;19927;-83
2022/11/09 08:55:25;;;;;;;;;;;8.40;99.90;;;;;;5051165;28;19916;-80
2022/11/09 08:57:53;;;;;;;;;;;8.40;99.90;;;;;;5066162;28;19994;-83
2022/11/09 09:00:19;;;;;;;;;;;8.40;99.90;;;;;;5064397;28;19916;-78
2022/11/09 09:02:45;;;;;;;;;;;8.50;99.90;;;;;;5065176;28;20574;-84
2022/11/09 09:05:10;;;;;;;;;;;8.50;99.90;;;;;;5066202;28;19924;-81
2022/11/09 09:07:36;;;;;;;;;;;8.70;99.90;;;;;;5068880;28;19931;-78
2022/11/09 09:10:03;;;;;;;;;;;8.70;99.90;;;;;;5067344;28;20388;-84
2022/11/09 09:12:29;;;;;;;;;;;8.80;99.90;;;;;;5066937;28;19920;-79
2022/11/09 09:14:54;;;;;;;;;;;8.80;99.90;;;;;;5047702;28;19917;-85
2022/11/09 09:17:20;;;;;;;;;;;8.90;99.90;;;;;;5067914;28;20317;-81
2022/11/09 09:19:45;;;;;;;;;;;8.80;99.90;;;;;;5066247;28;19928;-80
2022/11/09 09:22:11;;;;;;;;;;;8.90;99.90;;;;;;5064337;28;19917;-81
2022/11/09 09:24:36;;;;;;;;;;;9.00;99.90;;;;;;5057780;28;19912;-87
2022/11/09 09:27:02;;;;;;;;;;;9.00;99.90;;;;;;5070019;28;20270;-81
2022/11/09 09:29:28;;;;;;;;;;;9.20;99.90;;;;;;5067818;28;19925;-81
2022/11/09 09:31:54;;;;;;;;;;;9.40;99.90;;;;;;5065338;28;20297;-82
2022/11/09 09:34:20;;;;;;;;;;;9.50;99.90;;;;;;5067626;28;19952;-82
2022/11/09 09:36:45;;;;;;;;;;;9.70;99.90;;;;;;5065742;28;20480;-80
2022/11/09 09:39:11;;;;;;;;;;;9.50;99.90;;;;;;5066003;28;20466;-82
2022/11/09 09:41:40;;;;;;;;;;;9.60;99.90;;;;;;5065776;28;19973;-81
2022/11/09 09:44:09;;;;;;;;;;;9.70;99.90;;;;;;5049445;28;19913;-81
2022/11/09 09:46:37;;;;;;;;;;;9.70;99.90;;;;;;5067230;28;19908;-81
2022/11/09 09:49:09;;;;;;;;;;;9.80;99.90;;;;;;5063245;28;20003;-78
2022/11/09 09:51:37;;;;;;;;;;;10.00;99.90;;;;;;5066599;28;20089;-81
2022/11/09 09:54:06;;;;;;;;;;;10.00;99.90;;;;;;5062618;28;19913;-78
2022/11/09 09:56:38;;;;;;;;;;;10.20;99.90;;;;;;5049463;28;20338;-79
2022/11/09 09:59:13;;;;;;;;;;;10.40;99.90;;;;;;5062112;28;19924;-82
2022/11/09 10:01:41;;;;;;;;;;;10.30;99.90;;;;;;5065792;28;20372;-80
2022/11/09 10:04:20;;;;;;;;;;;10.30;99.90;;;;;;5067043;28;19916;-80
2022/11/09 10:06:58;;;;;;;;;;;10.30;99.90;;;;;;5053118;28;19921;-81
2022/11/09 10:09:26;;;;;;;;;;;10.30;99.90;;;;;;5061118;28;20390;-83
2022/11/09 10:12:10;;;;;;;;;;;10.30;99.90;;;;;;5066180;28;19924;-81
2022/11/09 10:14:48;;;;;;;;;;;10.50;99.90;;;;;;5044821;28;19921;-78
2022/11/09 10:17:22;;;;;;;;;;;10.60;99.90;;;;;;5067176;28;20336;-79
2022/11/09 10:19:57;;;;;;;;;;;10.80;99.90;;;;;;5064334;28;19916;-81
2022/11/09 10:22:37;;;;;;;;;;;11.10;99.90;;;;;;5064942;28;19919;-77
2022/11/09 10:25:14;;;;;;;;;;;11.10;99.90;;;;;;5049014;28;19924;-82
2022/11/09 10:27:42;;;;;;;;;;;11.30;99.90;;;;;;5062602;28;19927;-82
2022/11/09 10:30:13;;;;;;;;;;;11.40;99.90;;;;;;5066480;28;19920;-78
2022/11/09 10:32:40;;;;;;;;;;;11.20;99.90;;;;;;5065066;28;20354;-82
2022/11/09 10:35:11;;;;;;;;;;;11.20;99.90;;;;;;5065826;28;19970;-80
2022/11/09 10:37:37;;;;;;;;;;;11.20;99.90;;;;;;5063141;28;19956;-78
2022/11/09 10:40:10;;;;;;;;;;;11.40;99.90;;;;;;5064898;28;19919;-82
2022/11/09 10:42:36;;;;;;;;;;;11.30;99.90;;;;;;5063881;28;19916;-79
2022/11/09 10:45:11;;;;;;;;;;;11.30;99.90;;;;;;5066244;28;19923;-80
2022/11/09 10:47:50;;;;;;;;;;;11.60;99.90;;;;;;5066326;28;20651;-79
2022/11/09 10:50:21;;;;;;;;;;;11.70;99.90;;;;;;5054947;28;20578;-78
2022/11/09 10:52:47;;;;;;;;;;;11.70;99.90;;;;;;5066478;28;20374;-77
2022/11/09 10:55:35;;;;;;;;;;;11.70;99.90;;;;;;5069118;28;19978;-79
2022/11/09 10:58:21;;;;;;;;;;;11.50;99.90;;;;;;5069288;28;19916;-81
2022/11/09 11:01:11;;;;;;;;;;;11.60;99.90;;;;;;5033958;28;20007;-79
2022/11/09 11:03:39;;;;;;;;;;;11.90;99.90;;;;;;5068128;28;20027;-82
2022/11/09 11:06:05;;;;;;;;;;;11.90;99.90;;;;;;5068455;28;19955;-80
2022/11/09 11:08:36;;;;;;;;;;;11.80;99.90;;;;;;5068883;28;19948;-78
2022/11/09 11:11:06;;;;;;;;;;;11.80;99.90;;;;;;5065598;28;19946;-82
2022/11/09 11:13:31;;;;;;;;;;;11.80;99.90;;;;;;5068529;28;20453;-81
2022/11/09 11:15:57;;;;;;;;;;;11.90;99.90;;;;;;5069591;28;20007;-81
2022/11/09 11:18:24;;;;;;;;;;;11.80;99.90;;;;;;5052087;28;19956;-77
2022/11/09 11:21:09;;;;;;;;;;;11.80;99.90;;;;;;5067538;28;20007;-80
2022/11/09 11:23:35;;;;;;;;;;;11.90;99.90;;;;;;5057778;28;19960;-79
2022/11/09 11:26:05;;;;;;;;;;;11.90;99.90;;;;;;5069867;28;19938;-81
2022/11/09 11:28:39;;;;;;;;;;;11.80;99.90;;;;;;5072176;28;19916;-82
2022/11/09 11:31:10;;;;;;;;;;;11.90;99.90;;;;;;5061884;28;20355;-79
2022/11/09 11:33:35;;;;;;;;;;;11.90;99.90;;;;;;5066612;28;19920;-78
2022/11/09 11:36:06;;;;;;;;;;;12.00;99.90;;;;;;5051637;28;19990;-80
2022/11/09 11:38:36;;;;;;;;;;;12.00;99.90;;;;;;5065351;28;19920;-79
2022/11/09 11:41:20;;;;;;;;;;;12.20;99.90;;;;;;5069963;28;19913;-80
2022/11/09 11:43:58;;;;;;;;;;;12.00;99.90;;;;;;5067924;28;20139;-80
2022/11/09 11:46:35;;;;;;;;;;;11.90;99.90;;;;;;5065577;28;19923;-80
2022/11/09 11:49:18;;;;;;;;;;;11.70;99.90;;;;;;5066364;28;20406;-81
2022/11/09 11:51:59;;;;;;;;;;;11.60;99.90;;;;;;5049486;28;19935;-79
2022/11/09 11:54:28;;;;;;;;;;;11.70;99.90;;;;;;5065925;28;19962;-82
2022/11/09 11:57:09;;;;;;;;;;;11.80;99.90;;;;;;5067822;28;19917;-78
2022/11/09 11:59:38;;;;;;;;;;;12.20;99.90;;;;;;5049598;28;20026;-79
2022/11/09 12:02:27;;;;;;;;;;;12.50;99.90;;;;;;5067571;28;20393;-84
2022/11/09 12:05:11;;;;;;;;;;;12.80;99.90;;;;;;5067391;28;19970;-82
2022/11/09 12:07:58;;;;;;;;;;;13.10;99.90;;;;;;5065698;28;19920;-80
2022/11/09 12:10:34;;;;;;;;;;;13.00;99.70;;;;;;5068902;28;19921;-79
2022/11/09 12:13:00;;;;;;;;;;;13.10;99.40;;;;;;5067822;28;20355;-79
2022/11/09 12:15:31;;;;;;;;;;;13.50;98.50;;;;;;5068737;28;19924;-79
2022/11/09 12:18:15;;;;;;;;;;;13.70;98.50;;;;;;5068752;28;19924;-79
2022/11/09 12:20:47;;;;;;;;;;;13.90;97.00;;;;;;5064178;28;19912;-80
2022/11/09 12:23:16;;;;;;;;;;;13.80;95.90;;;;;;5051366;28;19912;-80
2022/11/09 12:25:41;;;;;;;;;;;13.70;95.40;;;;;;5064257;28;19935;-77
2022/11/09 12:28:10;;;;;;;;;;;13.80;94.80;;;;;;5065450;28;19909;-81
2022/11/09 12:30:40;;;;;;;;;;;14.00;94.10;;;;;;5068024;28;19981;-79
2022/11/09 12:33:15;;;;;;;;;;;13.80;93.60;;;;;;5068626;28;19916;-80
2022/11/09 12:35:48;;;;;;;;;;;14.00;94.30;;;;;;5063064;28;20382;-80
2022/11/09 12:38:16;;;;;;;;;;;14.00;93.80;;;;;;5067842;28;19921;-81
2022/11/09 12:41:00;;;;;;;;;;;14.10;93.50;;;;;;5066496;28;19920;-79
2022/11/09 12:43:44;;;;;;;;;;;14.10;93.60;;;;;;5064984;28;20162;-80
2022/11/09 12:46:12;;;;;;;;;;;14.20;93.20;;;;;;5065016;28;19952;-78
2022/11/09 12:48:39;;;;;;;;;;;14.40;92.90;;;;;;5050669;28;19978;-80
2022/11/09 12:51:06;;;;;;;;;;;14.70;92.40;;;;;;5068170;28;20472;-80
2022/11/09 12:53:34;;;;;;;;;;;14.40;92.20;;;;;;5047438;28;19913;-79
2022/11/09 12:56:02;;;;;;;;;;;14.20;91.90;;;;;;5050083;28;19912;-80
2022/11/09 12:58:32;;;;;;;;;;;14.10;92.80;;;;;;5066863;28;19920;-80
2022/11/09 13:00:59;;;;;;;;;;;14.30;93.00;;;;;;5068033;28;20419;-81
2022/11/09 13:03:30;;;;;;;;;;;14.10;93.00;;;;;;5049941;28;19916;-79
2022/11/09 13:06:08;;;;;;;;;;;14.30;93.10;;;;;;5065829;28;19924;-79
2022/11/09 13:08:35;;;;;;;;;;;14.30;91.70;;;;;;5049439;28;20374;-79
2022/11/09 13:11:27;;;;;;;;;;;14.20;91.00;;;;;;5067600;28;19964;-79
2022/11/09 13:14:12;;;;;;;;;;;14.30;91.60;;;;;;5041325;28;19924;-81
2022/11/09 13:16:38;;;;;;;;;;;14.10;91.70;;;;;;5050074;28;19913;-78
2022/11/09 13:19:07;;;;;;;;;;;13.80;91.90;;;;;;5049056;28;19974;-79
2022/11/09 13:21:33;;;;;;;;;;;13.60;91.80;;;;;;5065221;28;19920;-79
2022/11/09 13:24:19;;;;;;;;;;;13.60;92.60;;;;;;5067737;28;19917;-78
2022/11/09 13:26:44;;;;;;;;;;;13.40;93.00;;;;;;5067982;28;20543;-78
2022/11/09 13:29:13;;;;;;;;;;;13.30;93.40;;;;;;5065894;28;19926;-79
2022/11/09 13:31:57;;;;;;;;;;;13.30;93.70;;;;;;5067102;28;19967;-78
2022/11/09 13:34:42;;;;;;;;;;;13.20;93.60;;;;;;5066064;28;20729;-81
2022/11/09 13:37:26;;;;;;;;;;;13.00;94.60;;;;;;5067032;28;19924;-78
2022/11/09 13:39:52;;;;;;;;;;;12.90;95.60;;;;;;5066601;28;20018;-80
2022/11/09 13:42:28;;;;;;;;;;;12.80;96.60;;;;;;5066208;28;20422;-80
2022/11/09 13:45:14;;;;;;;;;;;12.70;96.80;;;;;;5063615;28;19920;-80
2022/11/09 13:49:50;;;;;;;804.03;752.40;;;12.50;97.50;;;;;;5098401;27;20119;-76
2022/11/09 13:52:46;;;;;;;1999.90;999.90;;;12.30;99.40;;;;;;4997422;28;20523;-76
2022/11/09 13:55:21;;;;;;;1999.90;999.90;;;12.30;99.90;;;;;;4997895;28;20724;-76
2022/11/09 13:57:47;;;;;;;1999.90;999.90;;;12.20;99.90;;;;;;5050417;28;20486;-76
2022/11/09 14:00:22;;;;;;;1999.90;999.90;;;12.00;99.90;;;;;;5069658;28;20024;-75
2022/11/09 14:03:05;;;;;;;1999.90;999.90;;;12.00;99.90;;;;;;5047326;28;20104;-75
2022/11/09 14:05:33;;;;;;;1999.90;999.90;;;12.00;99.90;;;;;;5066685;28;20031;-76
2022/11/09 14:08:01;;;;;;;1999.90;999.90;;;12.00;99.90;;;;;;5065344;28;20116;-76
2022/11/09 14:11:05;;;;;;;1999.90;999.90;;;11.90;99.90;;;;;;5064335;28;20055;-76
2022/11/09 14:14:08;;;;;;;1999.90;999.90;;;11.90;99.90;;;;;;5026318;28;20111;-77
2022/11/09 14:16:37;;;;;;;1999.90;999.90;;;11.70;99.90;;;;;;5082486;28;20031;-76
2022/11/09 14:19:26;;;;;;;1999.90;999.90;;;11.60;99.90;;;;;;5086963;28;20036;-76
2022/11/09 14:21:53;;;;;;;1999.90;999.90;;;11.60;99.90;;;;;;5082885;28;20031;-76
2022/11/09 14:24:28;;;;;;;1999.90;999.90;;;11.60;99.90;;;;;;5081143;28;20067;-76
2022/11/09 14:27:23;;;;;;;1999.90;999.90;;;11.60;99.90;;;;;;5064904;28;20036;-76
2022/11/09 14:29:52;;;;;;;1999.90;999.90;;;11.60;99.90;;;;;;5060599;28;20047;-76